sensor_id;sensor_type;location;lat;lon;timestamp;pressure;altitude;pressure_sealevel;temperature;humidity
75312;BME280;63906;55.686;37.532;2023-07-31T00:02:42;98778.59;;;14.24;91.30
75312;BME280;63906;55.686;37.532;2023-07-31T00:07:42;98787.31;;;14.25;90.88
75312;BME280;63906;55.686;37.532;2023-07-31T00:12:44;98788.38;;;14.24;91.12
75312;BME280;63906;55.686;37.532;2023-07-31T00:17:45;98785.03;;;14.28;91.78
75312;BME280;63906;55.686;37.532;2023-07-31T00:22:45;98766.03;;;14.20;91.41
75312;BME280;63906;55.686;37.532;2023-07-31T00:27:46;98785.25;;;14.27;90.88
75312;BME280;63906;55.686;37.532;2023-07-31T00:32:46;98779.63;;;14.23;91.55
75312;BME280;63906;55.686;37.532;2023-07-31T00:37:47;98785.47;;;14.37;91.09
75312;BME280;63906;55.686;37.532;2023-07-31T00:42:47;98774.63;;;14.50;91.91
75312;BME280;63906;55.686;37.532;2023-07-31T00:47:48;98777.19;;;14.74;90.84
75312;BME280;63906;55.686;37.532;2023-07-31T00:52:48;98776.63;;;14.89;89.58
75312;BME280;63906;55.686;37.532;2023-07-31T00:57:49;98776.63;;;14.89;89.88
75312;BME280;63906;55.686;37.532;2023-07-31T01:02:52;98778.88;;;14.80;89.60
75312;BME280;63906;55.686;37.532;2023-07-31T01:13:03;98775.13;;;14.64;89.82
75312;BME280;63906;55.686;37.532;2023-07-31T01:18:04;98738.84;;;14.48;90.52
75312;BME280;63906;55.686;37.532;2023-07-31T01:23:28;98779.78;;;14.86;89.43
75312;BME280;63906;55.686;37.532;2023-07-31T01:28:40;98757.97;;;14.67;89.09
75312;BME280;63906;55.686;37.532;2023-07-31T01:33:45;98778.41;;;14.54;88.81
75312;BME280;63906;55.686;37.532;2023-07-31T01:38:46;98775.09;;;14.36;89.13
75312;BME280;63906;55.686;37.532;2023-07-31T01:43:46;98776.25;;;14.28;89.67
75312;BME280;63906;55.686;37.532;2023-07-31T01:48:47;98785.72;;;14.24;90.01
75312;BME280;63906;55.686;37.532;2023-07-31T01:53:47;98773.31;;;14.13;89.84
75312;BME280;63906;55.686;37.532;2023-07-31T01:58:48;98778.59;;;14.13;90.20
75312;BME280;63906;55.686;37.532;2023-07-31T02:03:48;98782.19;;;14.07;90.20
75312;BME280;63906;55.686;37.532;2023-07-31T02:08:49;98708.75;;;13.62;90.25
75312;BME280;63906;55.686;37.532;2023-07-31T02:13:49;98784.28;;;14.05;90.14
75312;BME280;63906;55.686;37.532;2023-07-31T02:18:50;98783.00;;;14.07;90.48
75312;BME280;63906;55.686;37.532;2023-07-31T02:23:50;98764.03;;;13.98;90.70
75312;BME280;63906;55.686;37.532;2023-07-31T02:28:51;98770.00;;;14.06;90.71
75312;BME280;63906;55.686;37.532;2023-07-31T02:33:51;98781.59;;;14.16;90.86
75312;BME280;63906;55.686;37.532;2023-07-31T02:38:52;98737.34;;;14.00;90.93
75312;BME280;63906;55.686;37.532;2023-07-31T02:43:52;98782.69;;;14.32;90.80
75312;BME280;63906;55.686;37.532;2023-07-31T02:48:53;98770.44;;;14.66;91.14
75312;BME280;63906;55.686;37.532;2023-07-31T02:53:53;98779.66;;;15.26;88.62
75312;BME280;63906;55.686;37.532;2023-07-31T02:58:54;98775.78;;;15.50;87.46
75312;BME280;63906;55.686;37.532;2023-07-31T03:03:54;98776.53;;;15.63;87.73
75312;BME280;63906;55.686;37.532;2023-07-31T03:08:55;98785.50;;;16.17;83.28
75312;BME280;63906;55.686;37.532;2023-07-31T03:13:55;98773.53;;;16.36;82.54
75312;BME280;63906;55.686;37.532;2023-07-31T03:18:56;98777.44;;;16.56;81.43
75312;BME280;63906;55.686;37.532;2023-07-31T03:23:56;98764.97;;;16.56;82.16
75312;BME280;63906;55.686;37.532;2023-07-31T03:28:57;98771.94;;;16.62;82.36
75312;BME280;63906;55.686;37.532;2023-07-31T03:33:57;98779.38;;;16.60;82.82
75312;BME280;63906;55.686;37.532;2023-07-31T03:38:58;98784.56;;;16.72;82.64
75312;BME280;63906;55.686;37.532;2023-07-31T03:43:58;98775.47;;;16.95;80.53
75312;BME280;63906;55.686;37.532;2023-07-31T03:48:59;98739.91;;;17.01;77.68
75312;BME280;63906;55.686;37.532;2023-07-31T03:53:59;98769.41;;;17.32;77.21
75312;BME280;63906;55.686;37.532;2023-07-31T03:59:00;98773.84;;;17.53;75.82
75312;BME280;63906;55.686;37.532;2023-07-31T04:04:01;98765.84;;;17.53;75.85
75312;BME280;63906;55.686;37.532;2023-07-31T04:09:02;98781.44;;;17.71;76.11
75312;BME280;63906;55.686;37.532;2023-07-31T04:14:03;98773.78;;;17.85;74.37
75312;BME280;63906;55.686;37.532;2023-07-31T04:19:03;98788.47;;;17.93;73.92
75312;BME280;63906;55.686;37.532;2023-07-31T04:24:04;98799.16;;;17.98;74.49
75312;BME280;63906;55.686;37.532;2023-07-31T04:29:04;98786.44;;;18.10;72.97
75312;BME280;63906;55.686;37.532;2023-07-31T04:34:05;98793.97;;;18.28;70.56
75312;BME280;63906;55.686;37.532;2023-07-31T04:39:05;98788.72;;;18.39;69.79
75312;BME280;63906;55.686;37.532;2023-07-31T04:44:06;98786.63;;;18.51;70.27
75312;BME280;63906;55.686;37.532;2023-07-31T04:49:07;98795.47;;;18.67;69.78
75312;BME280;63906;55.686;37.532;2023-07-31T04:54:07;98767.44;;;18.59;69.33
75312;BME280;63906;55.686;37.532;2023-07-31T04:59:08;98804.84;;;18.85;69.45
75312;BME280;63906;55.686;37.532;2023-07-31T05:04:10;98793.66;;;18.93;68.25
75312;BME280;63906;55.686;37.532;2023-07-31T05:09:10;98799.56;;;19.10;66.68
75312;BME280;63906;55.686;37.532;2023-07-31T05:14:10;98802.22;;;19.25;66.00
75312;BME280;63906;55.686;37.532;2023-07-31T05:19:11;98801.72;;;19.39;64.99
75312;BME280;63906;55.686;37.532;2023-07-31T05:24:11;98802.22;;;19.56;64.06
75312;BME280;63906;55.686;37.532;2023-07-31T05:29:12;98799.06;;;19.64;63.70
75312;BME280;63906;55.686;37.532;2023-07-31T05:34:12;98785.69;;;19.64;64.50
75312;BME280;63906;55.686;37.532;2023-07-31T05:39:16;98784.63;;;19.75;63.60
75312;BME280;63906;55.686;37.532;2023-07-31T05:44:16;98804.84;;;20.07;62.37
75312;BME280;63906;55.686;37.532;2023-07-31T05:49:17;98754.91;;;19.87;61.73
75312;BME280;63906;55.686;37.532;2023-07-31T05:54:17;98802.38;;;20.21;60.49
75312;BME280;63906;55.686;37.532;2023-07-31T05:59:18;98779.66;;;20.23;60.57
75312;BME280;63906;55.686;37.532;2023-07-31T06:04:18;98772.13;;;20.35;58.69
75312;BME280;63906;55.686;37.532;2023-07-31T06:09:19;98817.97;;;20.68;59.68
75312;BME280;63906;55.686;37.532;2023-07-31T06:14:20;98803.47;;;20.79;57.87
75312;BME280;63906;55.686;37.532;2023-07-31T06:19:21;98801.81;;;20.88;58.30
75312;BME280;63906;55.686;37.532;2023-07-31T06:24:21;98816.00;;;20.89;58.91
75312;BME280;63906;55.686;37.532;2023-07-31T06:29:22;98810.81;;;21.03;57.56
75312;BME280;63906;55.686;37.532;2023-07-31T06:34:22;98781.38;;;21.03;56.79
75312;BME280;63906;55.686;37.532;2023-07-31T06:39:23;98810.13;;;21.26;55.09
75312;BME280;63906;55.686;37.532;2023-07-31T06:44:23;98812.19;;;21.39;54.96
75312;BME280;63906;55.686;37.532;2023-07-31T06:49:24;98795.31;;;21.39;53.10
75312;BME280;63906;55.686;37.532;2023-07-31T06:54:24;98824.22;;;21.71;52.60
75312;BME280;63906;55.686;37.532;2023-07-31T06:59:25;98813.19;;;21.77;52.34
75312;BME280;63906;55.686;37.532;2023-07-31T07:04:25;98792.53;;;21.78;50.42
75312;BME280;63906;55.686;37.532;2023-07-31T07:09:26;98820.38;;;22.11;48.64
75312;BME280;63906;55.686;37.532;2023-07-31T07:14:27;98819.34;;;22.31;47.99
75312;BME280;63906;55.686;37.532;2023-07-31T07:19:27;98810.16;;;22.37;47.31
75312;BME280;63906;55.686;37.532;2023-07-31T07:24:28;98800.56;;;22.31;46.63
75312;BME280;63906;55.686;37.532;2023-07-31T07:29:29;98785.50;;;22.35;45.12
75312;BME280;63906;55.686;37.532;2023-07-31T07:34:30;98831.97;;;22.73;44.30
75312;BME280;63906;55.686;37.532;2023-07-31T07:39:30;98824.72;;;22.74;44.47
75312;BME280;63906;55.686;37.532;2023-07-31T07:44:31;98799.41;;;22.61;45.41
75312;BME280;63906;55.686;37.532;2023-07-31T07:49:33;98822.94;;;22.88;44.44
75312;BME280;63906;55.686;37.532;2023-07-31T07:54:34;98823.13;;;22.92;45.17
75312;BME280;63906;55.686;37.532;2023-07-31T07:59:34;98822.84;;;23.12;42.99
75312;BME280;63906;55.686;37.532;2023-07-31T08:04:35;98785.34;;;23.07;43.63
75312;BME280;63906;55.686;37.532;2023-07-31T08:09:35;98826.78;;;23.52;42.14
75312;BME280;63906;55.686;37.532;2023-07-31T08:14:36;98818.72;;;23.52;42.08
75312;BME280;63906;55.686;37.532;2023-07-31T08:19:36;98821.91;;;23.54;42.00
75312;BME280;63906;55.686;37.532;2023-07-31T08:24:37;98795.53;;;23.56;42.56
75312;BME280;63906;55.686;37.532;2023-07-31T08:29:37;98810.84;;;23.88;40.91
75312;BME280;63906;55.686;37.532;2023-07-31T08:34:38;98833.69;;;24.05;40.10
75312;BME280;63906;55.686;37.532;2023-07-31T08:39:38;98824.00;;;23.90;40.88
75312;BME280;63906;55.686;37.532;2023-07-31T08:44:40;98828.56;;;24.03;41.50
75312;BME280;63906;55.686;37.532;2023-07-31T08:49:42;98818.63;;;24.31;42.26
75312;BME280;63906;55.686;37.532;2023-07-31T08:54:46;98821.19;;;24.78;40.36
75312;BME280;63906;55.686;37.532;2023-07-31T08:59:46;98826.41;;;25.33;40.15
75312;BME280;63906;55.686;37.532;2023-07-31T09:04:47;98826.41;;;25.55;39.11
75312;BME280;63906;55.686;37.532;2023-07-31T09:09:47;98822.84;;;25.46;38.77
75312;BME280;63906;55.686;37.532;2023-07-31T09:14:48;98830.84;;;25.29;39.01
75312;BME280;63906;55.686;37.532;2023-07-31T09:19:49;98823.59;;;25.38;38.12
75312;BME280;63906;55.686;37.532;2023-07-31T09:24:49;98809.50;;;25.94;37.59
75312;BME280;63906;55.686;37.532;2023-07-31T09:29:58;98809.09;;;26.41;37.92
75312;BME280;63906;55.686;37.532;2023-07-31T09:34:59;98824.16;;;26.42;36.32
75312;BME280;63906;55.686;37.532;2023-07-31T09:39:59;98819.00;;;26.31;36.88
75312;BME280;63906;55.686;37.532;2023-07-31T09:45:09;98828.34;;;26.65;35.98
75312;BME280;63906;55.686;37.532;2023-07-31T09:50:10;98820.41;;;26.95;34.98
75312;BME280;63906;55.686;37.532;2023-07-31T09:55:11;98818.22;;;27.23;34.72
75312;BME280;63906;55.686;37.532;2023-07-31T10:00:12;98820.59;;;27.24;33.37
75312;BME280;63906;55.686;37.532;2023-07-31T10:05:15;98828.81;;;26.67;33.66
75312;BME280;63906;55.686;37.532;2023-07-31T10:10:20;98835.03;;;26.94;33.83
75312;BME280;63906;55.686;37.532;2023-07-31T10:15:21;98810.31;;;29.00;31.84
75312;BME280;63906;55.686;37.532;2023-07-31T10:20:22;98816.75;;;30.68;29.62
75312;BME280;63906;55.686;37.532;2023-07-31T10:25:24;98816.44;;;32.13;28.15
75312;BME280;63906;55.686;37.532;2023-07-31T10:30:28;98815.44;;;33.69;25.07
75312;BME280;63906;55.686;37.532;2023-07-31T10:35:29;98817.34;;;33.27;26.05
75312;BME280;63906;55.686;37.532;2023-07-31T10:40:30;98834.50;;;33.89;23.68
75312;BME280;63906;55.686;37.532;2023-07-31T10:45:37;98841.06;;;31.57;25.77
75312;BME280;63906;55.686;37.532;2023-07-31T10:50:40;98817.56;;;28.87;28.87
75312;BME280;63906;55.686;37.532;2023-07-31T10:55:46;98840.09;;;27.56;30.75
75312;BME280;63906;55.686;37.532;2023-07-31T11:00:48;98824.06;;;26.81;32.43
75312;BME280;63906;55.686;37.532;2023-07-31T11:05:52;98834.09;;;27.07;32.79
75312;BME280;63906;55.686;37.532;2023-07-31T11:16:02;98812.84;;;37.01;21.14
75312;BME280;63906;55.686;37.532;2023-07-31T11:21:03;98824.06;;;38.04;19.79
75312;BME280;63906;55.686;37.532;2023-07-31T11:26:05;98812.59;;;34.35;23.19
75312;BME280;63906;55.686;37.532;2023-07-31T11:31:09;98777.47;;;31.06;26.49
75312;BME280;63906;55.686;37.532;2023-07-31T11:36:17;98806.97;;;29.36;28.75
75312;BME280;63906;55.686;37.532;2023-07-31T11:41:18;98811.19;;;29.79;29.17
75312;BME280;63906;55.686;37.532;2023-07-31T11:46:20;98785.88;;;31.88;27.27
75312;BME280;63906;55.686;37.532;2023-07-31T11:51:21;98801.25;;;31.09;28.34
75312;BME280;63906;55.686;37.532;2023-07-31T11:56:23;98809.41;;;29.95;29.18
75312;BME280;63906;55.686;37.532;2023-07-31T12:01:28;98798.16;;;29.06;30.44
75312;BME280;63906;55.686;37.532;2023-07-31T12:06:33;98799.78;;;30.59;29.41
75312;BME280;63906;55.686;37.532;2023-07-31T12:11:47;98809.06;;;30.70;28.88
75312;BME280;63906;55.686;37.532;2023-07-31T12:16:48;98820.88;;;30.25;29.84
75312;BME280;63906;55.686;37.532;2023-07-31T12:21:53;98809.19;;;29.22;30.86
75312;BME280;63906;55.686;37.532;2023-07-31T12:26:53;98816.88;;;28.49;31.71
75312;BME280;63906;55.686;37.532;2023-07-31T12:31:55;98809.47;;;27.99;32.71
75312;BME280;63906;55.686;37.532;2023-07-31T12:36:55;98816.81;;;29.08;31.63
75312;BME280;63906;55.686;37.532;2023-07-31T12:41:56;98785.50;;;32.22;27.62
75312;BME280;63906;55.686;37.532;2023-07-31T12:46:56;98814.66;;;31.18;28.22
75312;BME280;63906;55.686;37.532;2023-07-31T12:51:57;98831.38;;;29.36;30.13
75312;BME280;63906;55.686;37.532;2023-07-31T12:56:57;98820.22;;;28.16;31.72
75312;BME280;63906;55.686;37.532;2023-07-31T13:01:58;98822.41;;;29.23;31.06
75312;BME280;63906;55.686;37.532;2023-07-31T13:06:58;98825.91;;;30.88;29.08
75312;BME280;63906;55.686;37.532;2023-07-31T13:11:59;98812.41;;;33.13;26.22
75312;BME280;63906;55.686;37.532;2023-07-31T13:16:59;98834.91;;;34.63;23.86
75312;BME280;63906;55.686;37.532;2023-07-31T13:22:00;98789.31;;;35.01;23.19
75312;BME280;63906;55.686;37.532;2023-07-31T13:27:00;98822.59;;;34.76;23.75
75312;BME280;63906;55.686;37.532;2023-07-31T13:32:01;98818.56;;;31.60;27.31
75312;BME280;63906;55.686;37.532;2023-07-31T13:37:01;98807.50;;;29.50;30.35
75312;BME280;63906;55.686;37.532;2023-07-31T13:42:03;98819.88;;;28.17;33.18
75312;BME280;63906;55.686;37.532;2023-07-31T13:47:03;98836.34;;;27.22;34.80
75312;BME280;63906;55.686;37.532;2023-07-31T13:52:04;98826.44;;;26.74;36.00
75312;BME280;63906;55.686;37.532;2023-07-31T13:57:05;98830.38;;;26.11;37.11
75312;BME280;63906;55.686;37.532;2023-07-31T14:02:06;98846.22;;;25.73;38.43
75312;BME280;63906;55.686;37.532;2023-07-31T14:07:06;98843.56;;;25.37;39.86
75312;BME280;63906;55.686;37.532;2023-07-31T14:12:07;98831.63;;;25.07;40.60
75312;BME280;63906;55.686;37.532;2023-07-31T14:17:08;98839.34;;;24.86;41.65
75312;BME280;63906;55.686;37.532;2023-07-31T14:22:08;98835.19;;;24.38;43.83
75312;BME280;63906;55.686;37.532;2023-07-31T14:27:09;98832.97;;;24.13;46.26
75312;BME280;63906;55.686;37.532;2023-07-31T14:32:09;98820.03;;;24.29;46.91
75312;BME280;63906;55.686;37.532;2023-07-31T14:37:10;98798.06;;;24.77;45.67
75312;BME280;63906;55.686;37.532;2023-07-31T14:42:10;98826.91;;;25.12;46.81
75312;BME280;63906;55.686;37.532;2023-07-31T14:47:11;98817.97;;;25.48;46.87
75312;BME280;63906;55.686;37.532;2023-07-31T14:52:14;98819.31;;;25.14;47.58
75312;BME280;63906;55.686;37.532;2023-07-31T14:57:15;98799.97;;;25.12;46.38
75312;BME280;63906;55.686;37.532;2023-07-31T15:02:15;98807.56;;;25.10;46.56
75312;BME280;63906;55.686;37.532;2023-07-31T15:07:16;98803.28;;;25.32;46.13
75312;BME280;63906;55.686;37.532;2023-07-31T15:12:17;98816.75;;;25.54;45.39
75312;BME280;63906;55.686;37.532;2023-07-31T15:17:17;98812.59;;;25.48;46.26
75312;BME280;63906;55.686;37.532;2023-07-31T15:22:18;98811.41;;;24.82;47.44
75312;BME280;63906;55.686;37.532;2023-07-31T15:27:19;98821.81;;;23.92;47.44
75312;BME280;63906;55.686;37.532;2023-07-31T15:32:19;98818.03;;;23.28;49.95
75312;BME280;63906;55.686;37.532;2023-07-31T15:37:21;98826.47;;;23.02;51.40
75312;BME280;63906;55.686;37.532;2023-07-31T15:42:21;98831.63;;;22.99;52.14
75312;BME280;63906;55.686;37.532;2023-07-31T15:47:22;98832.44;;;22.99;51.76
75312;BME280;63906;55.686;37.532;2023-07-31T15:52:22;98824.31;;;23.04;52.87
75312;BME280;63906;55.686;37.532;2023-07-31T15:57:23;98825.16;;;23.19;51.61
75312;BME280;63906;55.686;37.532;2023-07-31T16:02:23;98819.13;;;23.27;53.11
75312;BME280;63906;55.686;37.532;2023-07-31T16:07:24;98817.84;;;23.24;54.77
75312;BME280;63906;55.686;37.532;2023-07-31T16:12:24;98835.72;;;23.29;55.72
75312;BME280;63906;55.686;37.532;2023-07-31T16:17:25;98819.78;;;23.19;55.91
75312;BME280;63906;55.686;37.532;2023-07-31T16:22:26;98802.00;;;23.04;57.21
75312;BME280;63906;55.686;37.532;2023-07-31T16:27:27;98824.06;;;23.20;57.30
75312;BME280;63906;55.686;37.532;2023-07-31T16:32:27;98832.69;;;23.17;58.15
75312;BME280;63906;55.686;37.532;2023-07-31T16:37:28;98824.50;;;23.08;58.90
75312;BME280;63906;55.686;37.532;2023-07-31T16:42:29;98832.13;;;23.01;60.04
75312;BME280;63906;55.686;37.532;2023-07-31T16:47:29;98829.81;;;22.94;60.26
75312;BME280;63906;55.686;37.532;2023-07-31T16:52:30;98812.50;;;22.87;59.37
75312;BME280;63906;55.686;37.532;2023-07-31T16:57:30;98808.69;;;22.69;60.17
75312;BME280;63906;55.686;37.532;2023-07-31T17:02:31;98849.81;;;22.83;59.88
75312;BME280;63906;55.686;37.532;2023-07-31T17:07:31;98851.53;;;22.74;60.16
75312;BME280;63906;55.686;37.532;2023-07-31T17:12:32;98846.31;;;22.40;61.03
75312;BME280;63906;55.686;37.532;2023-07-31T17:17:32;98869.34;;;22.17;62.30
75312;BME280;63906;55.686;37.532;2023-07-31T17:22:33;98871.47;;;21.91;62.85
75312;BME280;63906;55.686;37.532;2023-07-31T17:27:33;98875.97;;;21.66;63.60
75312;BME280;63906;55.686;37.532;2023-07-31T17:32:34;98876.19;;;21.36;64.30
75312;BME280;63906;55.686;37.532;2023-07-31T17:37:37;98877.13;;;21.11;65.08
75312;BME280;63906;55.686;37.532;2023-07-31T17:42:37;98873.78;;;20.90;65.92
75312;BME280;63906;55.686;37.532;2023-07-31T17:47:38;98886.16;;;20.70;66.29
75312;BME280;63906;55.686;37.532;2023-07-31T17:52:38;98904.63;;;20.62;66.87
75312;BME280;63906;55.686;37.532;2023-07-31T17:57:39;98906.84;;;20.50;67.20
75312;BME280;63906;55.686;37.532;2023-07-31T18:02:39;98922.63;;;20.46;67.77
75312;BME280;63906;55.686;37.532;2023-07-31T18:07:40;98922.88;;;20.29;68.10
75312;BME280;63906;55.686;37.532;2023-07-31T18:12:40;98926.38;;;20.20;68.84
75312;BME280;63906;55.686;37.532;2023-07-31T18:17:41;98919.72;;;20.07;69.16
75312;BME280;63906;55.686;37.532;2023-07-31T18:22:41;98924.53;;;19.95;69.89
75312;BME280;63906;55.686;37.532;2023-07-31T18:27:42;98875.09;;;19.41;70.45
75312;BME280;63906;55.686;37.532;2023-07-31T18:32:43;98922.88;;;19.48;70.90
75312;BME280;63906;55.686;37.532;2023-07-31T18:37:43;98873.16;;;19.01;71.54
75312;BME280;63906;55.686;37.532;2023-07-31T18:42:46;98918.56;;;19.21;71.77
75312;BME280;63906;55.686;37.532;2023-07-31T18:47:46;98926.50;;;19.06;72.29
75312;BME280;63906;55.686;37.532;2023-07-31T18:52:47;98925.66;;;18.90;72.92
75312;BME280;63906;55.686;37.532;2023-07-31T18:57:47;98918.94;;;18.72;73.15
75312;BME280;63906;55.686;37.532;2023-07-31T19:02:49;98908.91;;;18.47;73.52
75312;BME280;63906;55.686;37.532;2023-07-31T19:07:50;98925.13;;;18.41;74.47
75312;BME280;63906;55.686;37.532;2023-07-31T19:12:50;98927.72;;;18.30;74.65
75312;BME280;63906;55.686;37.532;2023-07-31T19:17:51;98922.59;;;18.19;74.97
75312;BME280;63906;55.686;37.532;2023-07-31T19:22:52;98928.63;;;18.04;75.54
75312;BME280;63906;55.686;37.532;2023-07-31T19:27:52;98939.75;;;17.96;75.89
75312;BME280;63906;55.686;37.532;2023-07-31T19:32:53;98940.19;;;17.83;76.58
75312;BME280;63906;55.686;37.532;2023-07-31T19:37:53;98947.59;;;17.81;77.19
75312;BME280;63906;55.686;37.532;2023-07-31T19:42:54;98911.94;;;17.55;76.91
75312;BME280;63906;55.686;37.532;2023-07-31T19:47:59;98914.81;;;17.48;77.32
75312;BME280;63906;55.686;37.532;2023-07-31T19:53:00;98917.38;;;17.38;77.14
75312;BME280;63906;55.686;37.532;2023-07-31T19:58:00;98960.66;;;17.55;78.17
75312;BME280;63906;55.686;37.532;2023-07-31T20:03:01;98891.44;;;17.01;78.57
75312;BME280;63906;55.686;37.532;2023-07-31T20:08:02;98943.38;;;17.31;78.68
75312;BME280;63906;55.686;37.532;2023-07-31T20:13:03;98927.88;;;17.22;78.91
75312;BME280;63906;55.686;37.532;2023-07-31T20:18:03;98949.50;;;17.31;78.70
75312;BME280;63906;55.686;37.532;2023-07-31T20:23:04;98958.28;;;17.32;79.19
75312;BME280;63906;55.686;37.532;2023-07-31T20:28:04;98949.41;;;17.21;79.38
75312;BME280;63906;55.686;37.532;2023-07-31T20:33:05;98962.13;;;17.19;79.42
75312;BME280;63906;55.686;37.532;2023-07-31T20:38:05;98940.31;;;16.95;79.66
75312;BME280;63906;55.686;37.532;2023-07-31T20:43:06;98959.59;;;17.07;80.18
75312;BME280;63906;55.686;37.532;2023-07-31T20:48:07;98967.34;;;17.09;80.33
75312;BME280;63906;55.686;37.532;2023-07-31T20:53:08;98969.13;;;17.03;80.47
75312;BME280;63906;55.686;37.532;2023-07-31T20:58:09;98960.59;;;17.01;80.32
75312;BME280;63906;55.686;37.532;2023-07-31T21:03:10;98970.94;;;16.98;80.78
75312;BME280;63906;55.686;37.532;2023-07-31T21:08:11;98950.94;;;16.95;80.88
75312;BME280;63906;55.686;37.532;2023-07-31T21:13:11;98955.41;;;16.89;80.99
75312;BME280;63906;55.686;37.532;2023-07-31T21:18:12;98960.97;;;16.88;81.21
75312;BME280;63906;55.686;37.532;2023-07-31T21:23:13;98951.31;;;16.82;81.65
75312;BME280;63906;55.686;37.532;2023-07-31T21:28:13;98960.84;;;16.78;81.91
75312;BME280;63906;55.686;37.532;2023-07-31T21:33:14;98956.81;;;16.75;82.01
75312;BME280;63906;55.686;37.532;2023-07-31T21:38:15;98961.84;;;16.72;81.99
75312;BME280;63906;55.686;37.532;2023-07-31T21:43:16;98953.13;;;16.59;82.11
75312;BME280;63906;55.686;37.532;2023-07-31T21:48:16;98951.03;;;16.61;82.54
75312;BME280;63906;55.686;37.532;2023-07-31T21:53:17;98971.31;;;16.67;82.81
75312;BME280;63906;55.686;37.532;2023-07-31T21:58:17;98954.41;;;16.57;82.59
75312;BME280;63906;55.686;37.532;2023-07-31T22:03:18;98952.56;;;16.57;83.05
75312;BME280;63906;55.686;37.532;2023-07-31T22:08:18;98969.56;;;16.56;83.17
75312;BME280;63906;55.686;37.532;2023-07-31T22:13:19;98956.69;;;16.48;83.46
75312;BME280;63906;55.686;37.532;2023-07-31T22:18:19;98942.88;;;16.46;83.77
75312;BME280;63906;55.686;37.532;2023-07-31T22:23:20;98934.50;;;16.37;83.55
75312;BME280;63906;55.686;37.532;2023-07-31T22:28:21;98938.28;;;16.41;83.67
75312;BME280;63906;55.686;37.532;2023-07-31T22:33:21;98933.44;;;16.38;83.80
75312;BME280;63906;55.686;37.532;2023-07-31T22:38:22;98948.19;;;16.46;84.04
75312;BME280;63906;55.686;37.532;2023-07-31T22:43:22;98948.56;;;16.38;83.90
75312;BME280;63906;55.686;37.532;2023-07-31T22:48:23;98944.47;;;16.30;84.28
75312;BME280;63906;55.686;37.532;2023-07-31T22:53:23;98951.16;;;16.33;84.64
75312;BME280;63906;55.686;37.532;2023-07-31T22:58:24;98948.75;;;16.31;83.95
75312;BME280;63906;55.686;37.532;2023-07-31T23:03:24;98946.88;;;16.32;84.41
75312;BME280;63906;55.686;37.532;2023-07-31T23:08:25;98943.69;;;16.30;84.34
75312;BME280;63906;55.686;37.532;2023-07-31T23:13:26;98955.59;;;16.27;84.29
75312;BME280;63906;55.686;37.532;2023-07-31T23:18:27;98942.97;;;16.18;84.55
75312;BME280;63906;55.686;37.532;2023-07-31T23:23:27;98956.88;;;16.25;84.33
75312;BME280;63906;55.686;37.532;2023-07-31T23:28:28;98964.84;;;16.25;84.63
75312;BME280;63906;55.686;37.532;2023-07-31T23:33:30;98947.72;;;16.15;84.47
75312;BME280;63906;55.686;37.532;2023-07-31T23:38:30;98964.75;;;16.20;85.30
75312;BME280;63906;55.686;37.532;2023-07-31T23:43:31;98956.06;;;16.07;85.16
75312;BME280;63906;55.686;37.532;2023-07-31T23:48:31;98954.47;;;16.06;85.46
75312;BME280;63906;55.686;37.532;2023-07-31T23:53:32;98950.63;;;15.97;85.58
75312;BME280;63906;55.686;37.532;2023-07-31T23:58:33;98919.81;;;15.79;85.82
